Airfield :
LOGIN :

Register | Disclaimer

   EN    FR    IT 

 










Legend :    VFR   Marginal VFR   IFR   Intensive IFR   Very Intensive IFR
Visi :
Ceiling :
>= 8 km
>= 3000ft
5 to 8 km
1000 to 3000 ft
1500m to 5 km
500 to 1000 ft
800 to 1500m
200 to 500 ft
< 800m
< 200 ft
Symbols :   Thunderstorms  Fog  Heavy snow  Heavy precipitations  Wind > 20 kt
SIGMETs :     Misc.  Thunderstorms  Icing  Turbulence  Mountain Waves  Volcanic Ashes






- Airport Elevation : -11 ft
- IATA code : AMS


EHAM - Amsterdam Schiphol

CURRENT METAR :
  • 300355Z 30002KT 9999 FEW045 M01/M04 Q1033 NOSIG

EXPIRED METARs :
  • 300325Z 30001KT 9999 FEW045 M00/M04 Q1033 NOSIG
  • 300255Z 29001KT 9999 FEW040 SCT047 M00/M04 Q1034 NOSIG
  • 300225Z 31003KT 9999 FEW035 BKN047 M01/M04 Q1034 NOSIG
  • 300155Z 32005KT 9999 FEW035 BKN046 M02/M05 Q1035 NOSIG
  • 300125Z 32005KT 9999 FEW035 M01/M05 Q1035 NOSIG
  • 300055Z 32005KT 9999 FEW040 M02/M05 Q1035 NOSIG

TAF TAF EHAM
Valid from the 30 at 00:00 until the 31 at 06:00 UTC


292310Z 3000/3106 36006KT CAVOK
BECMG 3008/3011 33010KT SCT030
TEMPO 3008/3010 7000 -RA SCT015 BKN022
PROB30
TEMPO 3008/3009 4000 RASN SCT012 BKN015
PROB40
TEMPO 3010/3018 7000 -SHRA -SHRAGS SCT025CB
BECMG 3018/3021 04007KT CAVOK



MET'MAP, your aeronautical weather chart ! - Copyright ORBIFLY December 2007 - Disclaimer

ORBIFLY MET'MAP TEAM :

Programming & Development : Alexandra Zaïnal
Concept & original design : Baudouin d'Aumeries
Assistance for programming : Marc-Olivier Méhu
Technical & hardware support : Manuel Goepfert

Contact : metmap@orbifly.com




SOURCES & CREDITS :

   NOAA